sensor_id;sensor_type;location;lat;lon;timestamp;P1;durP1;ratioP1;P2;durP2;ratioP2
76685;SDS011;74474;44.556;0.108;2024-02-15T00:01:25;6.07;;;2.33;;
76685;SDS011;74474;44.556;0.108;2024-02-15T00:06:56;6.13;;;2.97;;
76685;SDS011;74474;44.556;0.108;2024-02-15T00:12:29;3.83;;;2.53;;
76685;SDS011;74474;44.556;0.108;2024-02-15T00:18:01;3.93;;;2.67;;
76685;SDS011;74474;44.556;0.108;2024-02-15T00:23:34;4.97;;;2.30;;
76685;SDS011;74474;44.556;0.108;2024-02-15T00:29:06;4.37;;;2.93;;
76685;SDS011;74474;44.556;0.108;2024-02-15T00:34:39;4.70;;;2.57;;
76685;SDS011;74474;44.556;0.108;2024-02-15T00:40:13;4.13;;;2.87;;
76685;SDS011;74474;44.556;0.108;2024-02-15T00:45:46;4.67;;;3.17;;
76685;SDS011;74474;44.556;0.108;2024-02-15T00:51:19;5.43;;;3.23;;
76685;SDS011;74474;44.556;0.108;2024-02-15T00:56:51;4.53;;;2.67;;
76685;SDS011;74474;44.556;0.108;2024-02-15T01:02:23;5.93;;;2.97;;
76685;SDS011;74474;44.556;0.108;2024-02-15T01:07:56;6.03;;;2.70;;
76685;SDS011;74474;44.556;0.108;2024-02-15T01:13:30;6.20;;;2.63;;
76685;SDS011;74474;44.556;0.108;2024-02-15T01:19:02;3.97;;;2.50;;
76685;SDS011;74474;44.556;0.108;2024-02-15T01:24:35;4.67;;;2.53;;
76685;SDS011;74474;44.556;0.108;2024-02-15T01:30:08;5.50;;;2.97;;
76685;SDS011;74474;44.556;0.108;2024-02-15T01:35:43;5.70;;;2.73;;
76685;SDS011;74474;44.556;0.108;2024-02-15T01:41:13;3.53;;;2.43;;
76685;SDS011;74474;44.556;0.108;2024-02-15T01:46:46;3.87;;;2.40;;
76685;SDS011;74474;44.556;0.108;2024-02-15T01:52:19;3.27;;;2.20;;
76685;SDS011;74474;44.556;0.108;2024-02-15T01:57:52;8.00;;;2.40;;
76685;SDS011;74474;44.556;0.108;2024-02-15T02:03:24;5.00;;;2.97;;
76685;SDS011;74474;44.556;0.108;2024-02-15T02:08:58;3.53;;;1.90;;
76685;SDS011;74474;44.556;0.108;2024-02-15T02:14:31;2.17;;;1.80;;
76685;SDS011;74474;44.556;0.108;2024-02-15T02:20:05;2.60;;;2.00;;
76685;SDS011;74474;44.556;0.108;2024-02-15T02:25:37;4.30;;;2.33;;
76685;SDS011;74474;44.556;0.108;2024-02-15T02:31:11;2.60;;;1.93;;
76685;SDS011;74474;44.556;0.108;2024-02-15T02:36:44;3.70;;;1.93;;
76685;SDS011;74474;44.556;0.108;2024-02-15T02:42:18;2.03;;;1.90;;
76685;SDS011;74474;44.556;0.108;2024-02-15T02:47:50;2.07;;;1.80;;
76685;SDS011;74474;44.556;0.108;2024-02-15T02:53:23;3.37;;;2.30;;
76685;SDS011;74474;44.556;0.108;2024-02-15T02:58:56;3.87;;;2.10;;
76685;SDS011;74474;44.556;0.108;2024-02-15T03:04:27;2.87;;;1.87;;
76685;SDS011;74474;44.556;0.108;2024-02-15T03:09:59;2.43;;;2.07;;
76685;SDS011;74474;44.556;0.108;2024-02-15T03:15:32;3.10;;;2.40;;
76685;SDS011;74474;44.556;0.108;2024-02-15T03:21:07;5.07;;;2.50;;
76685;SDS011;74474;44.556;0.108;2024-02-15T03:26:38;4.73;;;1.87;;
76685;SDS011;74474;44.556;0.108;2024-02-15T03:32:11;2.37;;;2.00;;
76685;SDS011;74474;44.556;0.108;2024-02-15T03:37:43;2.27;;;1.93;;
76685;SDS011;74474;44.556;0.108;2024-02-15T03:43:16;3.07;;;2.17;;
76685;SDS011;74474;44.556;0.108;2024-02-15T03:48:50;6.13;;;2.10;;
76685;SDS011;74474;44.556;0.108;2024-02-15T03:54:23;3.53;;;2.40;;
76685;SDS011;74474;44.556;0.108;2024-02-15T03:59:55;4.50;;;1.80;;
76685;SDS011;74474;44.556;0.108;2024-02-15T04:05:29;2.90;;;1.73;;
76685;SDS011;74474;44.556;0.108;2024-02-15T04:11:02;4.57;;;1.60;;
76685;SDS011;74474;44.556;0.108;2024-02-15T04:16:35;4.20;;;1.70;;
76685;SDS011;74474;44.556;0.108;2024-02-15T04:22:11;5.10;;;1.60;;
76685;SDS011;74474;44.556;0.108;2024-02-15T04:27:42;2.10;;;1.43;;
76685;SDS011;74474;44.556;0.108;2024-02-15T04:33:14;5.50;;;1.50;;
76685;SDS011;74474;44.556;0.108;2024-02-15T04:38:46;3.37;;;1.63;;
76685;SDS011;74474;44.556;0.108;2024-02-15T04:44:19;3.87;;;1.57;;
76685;SDS011;74474;44.556;0.108;2024-02-15T04:49:53;3.07;;;1.60;;
76685;SDS011;74474;44.556;0.108;2024-02-15T04:55:26;1.73;;;1.40;;
76685;SDS011;74474;44.556;0.108;2024-02-15T05:00:59;3.93;;;1.50;;
76685;SDS011;74474;44.556;0.108;2024-02-15T05:06:32;5.67;;;1.90;;
76685;SDS011;74474;44.556;0.108;2024-02-15T05:12:04;1.60;;;1.23;;
76685;SDS011;74474;44.556;0.108;2024-02-15T05:17:38;4.23;;;1.43;;
76685;SDS011;74474;44.556;0.108;2024-02-15T05:23:11;1.60;;;1.50;;
76685;SDS011;74474;44.556;0.108;2024-02-15T05:28:43;5.13;;;1.50;;
76685;SDS011;74474;44.556;0.108;2024-02-15T05:34:16;2.13;;;1.47;;
76685;SDS011;74474;44.556;0.108;2024-02-15T05:39:49;2.60;;;1.83;;
76685;SDS011;74474;44.556;0.108;2024-02-15T05:45:30;2.03;;;1.57;;
76685;SDS011;74474;44.556;0.108;2024-02-15T05:50:54;2.23;;;1.77;;
76685;SDS011;74474;44.556;0.108;2024-02-15T05:56:26;4.30;;;1.77;;
76685;SDS011;74474;44.556;0.108;2024-02-15T06:02:02;4.67;;;1.77;;
76685;SDS011;74474;44.556;0.108;2024-02-15T06:07:32;1.83;;;1.73;;
76685;SDS011;74474;44.556;0.108;2024-02-15T06:13:04;3.13;;;2.00;;
76685;SDS011;74474;44.556;0.108;2024-02-15T06:18:37;3.83;;;2.23;;
76685;SDS011;74474;44.556;0.108;2024-02-15T06:24:10;4.37;;;1.90;;
76685;SDS011;74474;44.556;0.108;2024-02-15T06:29:42;6.73;;;2.73;;
76685;SDS011;74474;44.556;0.108;2024-02-15T06:35:15;3.17;;;2.20;;
76685;SDS011;74474;44.556;0.108;2024-02-15T06:40:47;3.47;;;2.60;;
76685;SDS011;74474;44.556;0.108;2024-02-15T06:46:20;6.53;;;2.33;;
76685;SDS011;74474;44.556;0.108;2024-02-15T06:51:52;5.63;;;3.07;;
76685;SDS011;74474;44.556;0.108;2024-02-15T06:57:25;6.13;;;2.33;;
76685;SDS011;74474;44.556;0.108;2024-02-15T07:02:59;3.80;;;2.60;;
76685;SDS011;74474;44.556;0.108;2024-02-15T07:08:31;5.10;;;3.00;;
76685;SDS011;74474;44.556;0.108;2024-02-15T07:14:05;4.43;;;2.83;;
76685;SDS011;74474;44.556;0.108;2024-02-15T07:19:42;5.43;;;2.70;;
76685;SDS011;74474;44.556;0.108;2024-02-15T07:25:12;6.80;;;2.60;;
76685;SDS011;74474;44.556;0.108;2024-02-15T07:30:45;5.30;;;3.03;;
76685;SDS011;74474;44.556;0.108;2024-02-15T07:36:18;3.37;;;2.70;;
76685;SDS011;74474;44.556;0.108;2024-02-15T07:41:51;5.77;;;2.90;;
76685;SDS011;74474;44.556;0.108;2024-02-15T07:47:23;4.20;;;3.30;;
76685;SDS011;74474;44.556;0.108;2024-02-15T07:52:56;7.63;;;4.07;;
76685;SDS011;74474;44.556;0.108;2024-02-15T07:58:29;5.03;;;3.20;;
76685;SDS011;74474;44.556;0.108;2024-02-15T08:04:02;4.20;;;3.07;;
76685;SDS011;74474;44.556;0.108;2024-02-15T08:09:34;3.00;;;2.50;;
76685;SDS011;74474;44.556;0.108;2024-02-15T08:15:08;3.27;;;2.73;;
76685;SDS011;74474;44.556;0.108;2024-02-15T08:20:40;4.87;;;2.87;;
76685;SDS011;74474;44.556;0.108;2024-02-15T08:26:12;5.60;;;2.67;;
76685;SDS011;74474;44.556;0.108;2024-02-15T08:31:44;3.87;;;2.67;;
76685;SDS011;74474;44.556;0.108;2024-02-15T08:37:17;3.17;;;2.37;;
76685;SDS011;74474;44.556;0.108;2024-02-15T08:42:49;4.13;;;2.47;;
76685;SDS011;74474;44.556;0.108;2024-02-15T08:48:21;5.63;;;2.40;;
76685;SDS011;74474;44.556;0.108;2024-02-15T08:53:54;3.27;;;2.50;;
76685;SDS011;74474;44.556;0.108;2024-02-15T08:59:28;3.87;;;3.07;;
76685;SDS011;74474;44.556;0.108;2024-02-15T09:05:01;3.93;;;2.73;;
76685;SDS011;74474;44.556;0.108;2024-02-15T09:10:33;7.67;;;4.50;;
76685;SDS011;74474;44.556;0.108;2024-02-15T09:16:05;3.90;;;2.40;;
76685;SDS011;74474;44.556;0.108;2024-02-15T09:27:11;3.10;;;2.50;;
76685;SDS011;74474;44.556;0.108;2024-02-15T09:32:45;3.50;;;2.47;;
76685;SDS011;74474;44.556;0.108;2024-02-15T09:38:17;3.03;;;2.47;;
76685;SDS011;74474;44.556;0.108;2024-02-15T09:43:49;2.07;;;1.97;;
76685;SDS011;74474;44.556;0.108;2024-02-15T09:49:22;1.80;;;1.70;;
76685;SDS011;74474;44.556;0.108;2024-02-15T09:54:54;2.83;;;2.20;;
76685;SDS011;74474;44.556;0.108;2024-02-15T10:00:28;3.37;;;2.20;;
76685;SDS011;74474;44.556;0.108;2024-02-15T10:06:00;4.03;;;2.13;;
76685;SDS011;74474;44.556;0.108;2024-02-15T10:11:33;3.27;;;2.40;;
76685;SDS011;74474;44.556;0.108;2024-02-15T10:17:06;2.90;;;2.13;;
76685;SDS011;74474;44.556;0.108;2024-02-15T10:22:37;5.33;;;2.37;;
76685;SDS011;74474;44.556;0.108;2024-02-15T10:28:10;3.07;;;2.43;;
76685;SDS011;74474;44.556;0.108;2024-02-15T10:33:44;2.77;;;2.20;;
76685;SDS011;74474;44.556;0.108;2024-02-15T10:39:17;5.33;;;3.17;;
76685;SDS011;74474;44.556;0.108;2024-02-15T10:44:49;3.53;;;2.40;;
76685;SDS011;74474;44.556;0.108;2024-02-15T10:50:22;2.60;;;2.00;;
76685;SDS011;74474;44.556;0.108;2024-02-15T10:55:57;9.73;;;2.63;;
76685;SDS011;74474;44.556;0.108;2024-02-15T11:01:27;2.47;;;2.27;;
76685;SDS011;74474;44.556;0.108;2024-02-15T11:06:59;3.23;;;2.43;;
76685;SDS011;74474;44.556;0.108;2024-02-15T11:12:31;3.57;;;2.63;;
76685;SDS011;74474;44.556;0.108;2024-02-15T11:18:04;4.20;;;2.27;;
76685;SDS011;74474;44.556;0.108;2024-02-15T11:29:09;3.07;;;2.27;;
76685;SDS011;74474;44.556;0.108;2024-02-15T11:34:42;2.50;;;2.10;;
76685;SDS011;74474;44.556;0.108;2024-02-15T11:40:13;7.77;;;4.07;;
76685;SDS011;74474;44.556;0.108;2024-02-15T11:45:46;3.03;;;2.67;;
76685;SDS011;74474;44.556;0.108;2024-02-15T11:51:27;7.63;;;4.40;;
76685;SDS011;74474;44.556;0.108;2024-02-15T11:56:53;12.00;;;5.77;;
76685;SDS011;74474;44.556;0.108;2024-02-15T12:02:25;9.83;;;3.80;;
76685;SDS011;74474;44.556;0.108;2024-02-15T12:07:57;3.50;;;2.07;;
76685;SDS011;74474;44.556;0.108;2024-02-15T12:13:31;2.27;;;1.67;;
76685;SDS011;74474;44.556;0.108;2024-02-15T12:19:04;1.97;;;1.80;;
76685;SDS011;74474;44.556;0.108;2024-02-15T12:24:35;2.07;;;1.87;;
76685;SDS011;74474;44.556;0.108;2024-02-15T12:30:07;3.13;;;1.80;;
76685;SDS011;74474;44.556;0.108;2024-02-15T12:35:39;2.20;;;2.00;;
76685;SDS011;74474;44.556;0.108;2024-02-15T12:41:18;1.97;;;1.50;;
76685;SDS011;74474;44.556;0.108;2024-02-15T12:46:42;1.87;;;1.53;;
76685;SDS011;74474;44.556;0.108;2024-02-15T12:57:49;2.50;;;2.17;;
76685;SDS011;74474;44.556;0.108;2024-02-15T13:03:20;3.57;;;2.30;;
76685;SDS011;74474;44.556;0.108;2024-02-15T13:08:54;3.47;;;2.33;;
76685;SDS011;74474;44.556;0.108;2024-02-15T13:14:25;3.67;;;2.17;;
76685;SDS011;74474;44.556;0.108;2024-02-15T13:20:01;3.77;;;2.20;;
76685;SDS011;74474;44.556;0.108;2024-02-15T13:25:31;3.00;;;2.43;;
76685;SDS011;74474;44.556;0.108;2024-02-15T13:31:04;8.17;;;2.67;;
76685;SDS011;74474;44.556;0.108;2024-02-15T13:36:36;9.57;;;3.60;;
76685;SDS011;74474;44.556;0.108;2024-02-15T13:42:08;10.07;;;5.10;;
76685;SDS011;74474;44.556;0.108;2024-02-15T13:47:40;5.23;;;2.80;;
76685;SDS011;74474;44.556;0.108;2024-02-15T13:53:14;7.80;;;3.50;;
76685;SDS011;74474;44.556;0.108;2024-02-15T13:58:46;3.03;;;2.73;;
76685;SDS011;74474;44.556;0.108;2024-02-15T14:04:20;2.90;;;2.30;;
76685;SDS011;74474;44.556;0.108;2024-02-15T14:09:52;3.03;;;1.97;;
76685;SDS011;74474;44.556;0.108;2024-02-15T14:15:24;4.43;;;2.50;;
76685;SDS011;74474;44.556;0.108;2024-02-15T14:20:57;5.93;;;2.40;;
76685;SDS011;74474;44.556;0.108;2024-02-15T14:26:31;3.70;;;1.90;;
76685;SDS011;74474;44.556;0.108;2024-02-15T14:32:02;2.03;;;1.67;;
76685;SDS011;74474;44.556;0.108;2024-02-15T14:37:34;2.20;;;2.00;;
76685;SDS011;74474;44.556;0.108;2024-02-15T14:43:08;3.17;;;2.00;;
76685;SDS011;74474;44.556;0.108;2024-02-15T14:48:41;3.30;;;1.83;;
76685;SDS011;74474;44.556;0.108;2024-02-15T14:54:15;1.87;;;1.60;;
76685;SDS011;74474;44.556;0.108;2024-02-15T14:59:47;4.03;;;2.90;;
76685;SDS011;74474;44.556;0.108;2024-02-15T15:05:18;4.90;;;2.10;;
76685;SDS011;74474;44.556;0.108;2024-02-15T15:10:51;2.93;;;1.37;;
76685;SDS011;74474;44.556;0.108;2024-02-15T15:16:23;3.03;;;1.70;;
76685;SDS011;74474;44.556;0.108;2024-02-15T15:21:55;3.10;;;1.80;;
76685;SDS011;74474;44.556;0.108;2024-02-15T15:27:27;4.07;;;1.80;;
76685;SDS011;74474;44.556;0.108;2024-02-15T15:32:59;2.30;;;1.80;;
76685;SDS011;74474;44.556;0.108;2024-02-15T15:38:31;1.90;;;1.70;;
76685;SDS011;74474;44.556;0.108;2024-02-15T15:44:04;1.73;;;1.50;;
76685;SDS011;74474;44.556;0.108;2024-02-15T15:49:37;2.40;;;1.40;;
76685;SDS011;74474;44.556;0.108;2024-02-15T15:55:10;2.07;;;1.90;;
76685;SDS011;74474;44.556;0.108;2024-02-15T16:00:42;2.93;;;2.00;;
76685;SDS011;74474;44.556;0.108;2024-02-15T16:06:15;5.90;;;2.50;;
76685;SDS011;74474;44.556;0.108;2024-02-15T16:11:48;2.13;;;1.93;;
76685;SDS011;74474;44.556;0.108;2024-02-15T16:17:20;1.87;;;1.77;;
76685;SDS011;74474;44.556;0.108;2024-02-15T16:22:52;6.57;;;1.80;;
76685;SDS011;74474;44.556;0.108;2024-02-15T16:28:25;5.03;;;1.97;;
76685;SDS011;74474;44.556;0.108;2024-02-15T16:33:58;2.47;;;2.03;;
76685;SDS011;74474;44.556;0.108;2024-02-15T16:39:30;4.70;;;2.13;;
76685;SDS011;74474;44.556;0.108;2024-02-15T16:45:02;2.40;;;1.93;;
76685;SDS011;74474;44.556;0.108;2024-02-15T16:50:34;1.90;;;1.70;;
76685;SDS011;74474;44.556;0.108;2024-02-15T16:56:08;2.77;;;1.97;;
76685;SDS011;74474;44.556;0.108;2024-02-15T17:01:41;1.80;;;1.40;;
76685;SDS011;74474;44.556;0.108;2024-02-15T17:07:13;3.20;;;2.37;;
76685;SDS011;74474;44.556;0.108;2024-02-15T17:12:46;2.43;;;2.03;;
76685;SDS011;74474;44.556;0.108;2024-02-15T17:18:19;4.17;;;1.67;;
76685;SDS011;74474;44.556;0.108;2024-02-15T17:23:51;5.17;;;2.30;;
76685;SDS011;74474;44.556;0.108;2024-02-15T17:29:24;5.67;;;2.80;;
76685;SDS011;74474;44.556;0.108;2024-02-15T17:34:55;4.77;;;2.63;;
76685;SDS011;74474;44.556;0.108;2024-02-15T17:40:28;4.63;;;2.40;;
76685;SDS011;74474;44.556;0.108;2024-02-15T17:46:01;3.07;;;2.23;;
76685;SDS011;74474;44.556;0.108;2024-02-15T17:51:33;4.07;;;2.17;;
76685;SDS011;74474;44.556;0.108;2024-02-15T17:57:04;3.53;;;2.40;;
76685;SDS011;74474;44.556;0.108;2024-02-15T18:02:37;2.10;;;1.93;;
76685;SDS011;74474;44.556;0.108;2024-02-15T18:08:11;3.93;;;2.30;;
76685;SDS011;74474;44.556;0.108;2024-02-15T18:13:43;4.73;;;2.70;;
76685;SDS011;74474;44.556;0.108;2024-02-15T18:19:15;4.97;;;3.60;;
76685;SDS011;74474;44.556;0.108;2024-02-15T18:24:47;4.37;;;3.10;;
76685;SDS011;74474;44.556;0.108;2024-02-15T18:30:20;4.53;;;2.70;;
76685;SDS011;74474;44.556;0.108;2024-02-15T18:35:53;4.37;;;2.40;;
76685;SDS011;74474;44.556;0.108;2024-02-15T18:41:26;4.73;;;2.57;;
76685;SDS011;74474;44.556;0.108;2024-02-15T18:46:58;4.73;;;2.67;;
76685;SDS011;74474;44.556;0.108;2024-02-15T18:52:31;5.60;;;2.87;;
76685;SDS011;74474;44.556;0.108;2024-02-15T18:58:04;5.97;;;3.60;;
76685;SDS011;74474;44.556;0.108;2024-02-15T19:03:37;3.07;;;2.77;;
76685;SDS011;74474;44.556;0.108;2024-02-15T19:09:09;4.57;;;2.67;;
76685;SDS011;74474;44.556;0.108;2024-02-15T19:14:41;3.77;;;2.57;;
76685;SDS011;74474;44.556;0.108;2024-02-15T19:20:13;3.17;;;2.60;;
76685;SDS011;74474;44.556;0.108;2024-02-15T19:25:46;7.67;;;2.47;;
76685;SDS011;74474;44.556;0.108;2024-02-15T19:31:19;6.07;;;2.73;;
76685;SDS011;74474;44.556;0.108;2024-02-15T19:36:50;6.37;;;2.87;;
76685;SDS011;74474;44.556;0.108;2024-02-15T19:42:23;7.30;;;3.07;;
76685;SDS011;74474;44.556;0.108;2024-02-15T19:47:56;4.37;;;2.67;;
76685;SDS011;74474;44.556;0.108;2024-02-15T19:53:27;6.27;;;2.77;;
76685;SDS011;74474;44.556;0.108;2024-02-15T19:59:00;5.57;;;3.17;;
76685;SDS011;74474;44.556;0.108;2024-02-15T20:04:31;9.87;;;3.40;;
76685;SDS011;74474;44.556;0.108;2024-02-15T20:10:05;13.57;;;4.07;;
76685;SDS011;74474;44.556;0.108;2024-02-15T20:15:36;11.17;;;4.03;;
76685;SDS011;74474;44.556;0.108;2024-02-15T20:21:10;7.50;;;2.83;;
76685;SDS011;74474;44.556;0.108;2024-02-15T20:26:43;9.83;;;3.20;;
76685;SDS011;74474;44.556;0.108;2024-02-15T20:32:15;14.07;;;3.23;;
76685;SDS011;74474;44.556;0.108;2024-02-15T20:37:48;12.20;;;4.10;;
76685;SDS011;74474;44.556;0.108;2024-02-15T20:43:20;8.93;;;3.37;;
76685;SDS011;74474;44.556;0.108;2024-02-15T20:48:53;13.57;;;4.20;;
76685;SDS011;74474;44.556;0.108;2024-02-15T20:54:27;7.97;;;3.70;;
76685;SDS011;74474;44.556;0.108;2024-02-15T21:00:00;11.30;;;3.43;;
76685;SDS011;74474;44.556;0.108;2024-02-15T21:05:32;8.60;;;3.73;;
76685;SDS011;74474;44.556;0.108;2024-02-15T21:11:04;12.40;;;3.93;;
76685;SDS011;74474;44.556;0.108;2024-02-15T21:16:37;7.53;;;3.10;;
76685;SDS011;74474;44.556;0.108;2024-02-15T21:22:08;10.17;;;3.37;;
76685;SDS011;74474;44.556;0.108;2024-02-15T21:27:40;9.40;;;3.47;;
76685;SDS011;74474;44.556;0.108;2024-02-15T21:33:13;10.30;;;4.13;;
76685;SDS011;74474;44.556;0.108;2024-02-15T21:38:46;13.47;;;3.50;;
76685;SDS011;74474;44.556;0.108;2024-02-15T21:44:19;6.03;;;3.30;;
76685;SDS011;74474;44.556;0.108;2024-02-15T21:49:52;9.07;;;3.70;;
76685;SDS011;74474;44.556;0.108;2024-02-15T21:55:25;12.63;;;3.37;;
76685;SDS011;74474;44.556;0.108;2024-02-15T22:00:57;12.10;;;3.67;;
76685;SDS011;74474;44.556;0.108;2024-02-15T22:06:30;13.00;;;3.67;;
76685;SDS011;74474;44.556;0.108;2024-02-15T22:12:02;8.57;;;3.37;;
76685;SDS011;74474;44.556;0.108;2024-02-15T22:17:34;8.20;;;4.00;;
76685;SDS011;74474;44.556;0.108;2024-02-15T22:23:07;11.27;;;3.97;;
76685;SDS011;74474;44.556;0.108;2024-02-15T22:28:39;10.43;;;3.97;;
76685;SDS011;74474;44.556;0.108;2024-02-15T22:34:10;13.40;;;6.30;;
76685;SDS011;74474;44.556;0.108;2024-02-15T22:39:44;13.23;;;4.90;;
76685;SDS011;74474;44.556;0.108;2024-02-15T22:45:16;13.10;;;5.37;;
76685;SDS011;74474;44.556;0.108;2024-02-15T22:50:50;11.93;;;4.60;;
76685;SDS011;74474;44.556;0.108;2024-02-15T22:56:23;14.53;;;5.10;;
76685;SDS011;74474;44.556;0.108;2024-02-15T23:01:56;10.07;;;5.00;;
76685;SDS011;74474;44.556;0.108;2024-02-15T23:07:28;11.47;;;4.80;;
76685;SDS011;74474;44.556;0.108;2024-02-15T23:13:01;10.13;;;4.40;;
76685;SDS011;74474;44.556;0.108;2024-02-15T23:18:35;13.57;;;5.33;;
76685;SDS011;74474;44.556;0.108;2024-02-15T23:24:07;13.00;;;4.63;;
76685;SDS011;74474;44.556;0.108;2024-02-15T23:29:40;12.43;;;4.37;;
76685;SDS011;74474;44.556;0.108;2024-02-15T23:35:12;11.83;;;4.40;;
76685;SDS011;74474;44.556;0.108;2024-02-15T23:40:45;18.07;;;4.47;;
76685;SDS011;74474;44.556;0.108;2024-02-15T23:46:17;10.27;;;4.33;;
76685;SDS011;74474;44.556;0.108;2024-02-15T23:51:50;11.67;;;4.17;;
76685;SDS011;74474;44.556;0.108;2024-02-15T23:57:23;10.10;;;4.43;;
